Terminal Aerodrome Forecast
Issued by NWS

Home | Current Version | Previous Version | Text Only | Print | Product List | Glossary On
Versions: 1 2 3 4 5 6 7 8 9 10 11 12 13 14 15 16
000
FTUS42 KGSP 210348 AAA
TAFGMU
TAF AMD
KGMU 210348Z 2104/2124 05004KT 6SM BR BKN009 OVC014
      TEMPO 2104/2107 SCT009
     FM210700 04003KT 3SM BR OVC010
     FM211600 06005KT P6SM BKN050
     FM212100 08006KT P6SM BKN025=

USA.gov is the U.S. government's official web portal to all federal, state and local government web resources and services.